Terminal Aerodrome Forecast
Issued by NWS

Home | Current Version | Previous Version | Text Only | Print | Product List | Glossary Off
Versions: 1 2 3 4 5 6 7 8 9 10 11 12 13 14 15 16 17 18

000
FTUS43 KFGF 151138
TAFBJI
TAF
KBJI 151138Z 1512/1612 30017G23KT P6SM OVC006
     FM151500 30017G25KT P6SM OVC010
     FM160200 32010KT P6SM BKN015=

USA.gov is the U.S. government's official web portal to all federal, state and local government web resources and services.